Metar z pełnej godziny Komunikat METAR ze strony awiacja.imgw.pl Metar G00 EPRZ METAR EPRZ 271400Z 22005KT 200V260 9999 OVC014 04/01 Q0997 =